Time;durP1;ratioP1;P1;durP2;ratioP2;P2;SDS_P1;SDS_P2;PMS_P1;PMS_P2;Temp;Humidity;BMP_temperature;BMP_pressure;BME280_temperature;BME280_humidity;BME280_pressure;Samples;Min_cycle;Max_cycle;Signal;HPM_P1;HPM_P2
2021/03/12 00:00:59;;;;;;;0.70;0.70;;;6.90;99.90;;;;;;5075387;28;20197;-68
2021/03/12 00:03:30;;;;;;;0.30;0.30;;;6.90;99.90;;;;;;5076294;28;20172;-67
2021/03/12 00:05:58;;;;;;;0.40;0.40;;;6.90;99.90;;;;;;5075957;28;20196;-67
2021/03/12 00:08:30;;;;;;;0.30;0.30;;;6.90;99.90;;;;;;5076038;28;20577;-67
2021/03/12 00:10:57;;;;;;;0.30;0.30;;;6.80;99.90;;;;;;5096243;28;20182;-68
2021/03/12 00:13:24;;;;;;;0.30;0.30;;;6.80;99.90;;;;;;5095588;28;20208;-67
2021/03/12 00:15:50;;;;;;;0.30;0.30;;;6.80;99.90;;;;;;5082333;28;20250;-67
2021/03/12 00:18:22;;;;;;;0.30;0.20;;;6.80;99.90;;;;;;5076105;28;20184;-69
2021/03/12 00:20:51;;;;;;;0.35;0.35;;;6.80;99.90;;;;;;5075874;28;20200;-68
2021/03/12 00:23:17;;;;;;;0.30;0.30;;;6.80;99.90;;;;;;5076414;28;20204;-68
2021/03/12 00:25:45;;;;;;;0.30;0.30;;;6.90;99.90;;;;;;5075539;28;20228;-69
2021/03/12 00:28:12;;;;;;;0.30;0.30;;;6.90;99.90;;;;;;5076149;28;20192;-68
2021/03/12 00:30:39;;;;;;;0.40;0.40;;;7.00;99.90;;;;;;5075749;28;20169;-67
2021/03/12 00:33:06;;;;;;;0.30;0.30;;;7.00;99.90;;;;;;5075738;28;20188;-68
2021/03/12 00:35:33;;;;;;;0.30;0.20;;;7.10;99.90;;;;;;5062894;28;20710;-67
2021/03/12 00:38:11;;;;;;;0.40;0.40;;;7.10;99.90;;;;;;5074860;28;20188;-70
2021/03/12 00:40:47;;;;;;;0.30;0.30;;;7.20;99.90;;;;;;5075635;28;20192;-67
2021/03/12 00:43:13;;;;;;;0.30;0.30;;;7.30;99.90;;;;;;5076102;28;20177;-69
2021/03/12 00:45:41;;;;;;;0.30;0.30;;;7.40;99.90;;;;;;5072890;28;20193;-69
2021/03/12 00:48:08;;;;;;;0.30;0.30;;;7.50;99.90;;;;;;5074313;28;20183;-68
2021/03/12 00:50:36;;;;;;;0.30;0.30;;;7.50;99.90;;;;;;5074182;28;20204;-69
2021/03/12 00:53:02;;;;;;;0.30;0.30;;;7.60;99.90;;;;;;5075543;28;20192;-68
2021/03/12 00:55:28;;;;;;;0.30;0.20;;;7.70;99.90;;;;;;5074541;28;20660;-67
2021/03/12 00:57:54;;;;;;;0.30;0.30;;;7.70;99.90;;;;;;5076072;28;20183;-67
2021/03/12 01:00:25;;;;;;;0.30;0.20;;;7.70;99.90;;;;;;5073833;28;20467;-69
2021/03/12 01:02:51;;;;;;;0.30;0.30;;;7.80;99.90;;;;;;5075726;28;20196;-68
2021/03/12 01:05:18;;;;;;;0.30;0.20;;;7.80;99.90;;;;;;5074707;28;20196;-69
2021/03/12 01:07:44;;;;;;;0.30;0.30;;;7.90;99.90;;;;;;5075544;28;20257;-68
2021/03/12 01:10:11;;;;;;;0.30;0.30;;;7.90;99.90;;;;;;5074862;28;20184;-69
2021/03/12 01:12:36;;;;;;;0.30;0.30;;;8.00;99.90;;;;;;5074250;28;20185;-68
2021/03/12 01:15:07;;;;;;;0.30;0.30;;;8.00;99.90;;;;;;5074634;28;20691;-68
2021/03/12 01:17:33;;;;;;;0.30;0.30;;;8.00;99.90;;;;;;5074169;28;20183;-69
2021/03/12 01:19:59;;;;;;;0.30;0.27;;;8.00;99.90;;;;;;5075043;28;20211;-68
2021/03/12 01:22:24;;;;;;;0.30;0.30;;;8.00;99.90;;;;;;5075093;28;20169;-68
2021/03/12 01:24:50;;;;;;;0.30;0.30;;;8.00;99.90;;;;;;5074268;28;20662;-68
2021/03/12 01:27:16;;;;;;;0.30;0.30;;;8.00;99.90;;;;;;5075238;28;20174;-69
2021/03/12 01:29:41;;;;;;;0.30;0.30;;;8.00;99.90;;;;;;5074645;28;20165;-68
2021/03/12 01:32:08;;;;;;;0.30;0.30;;;7.90;99.90;;;;;;5075057;28;20179;-68
2021/03/12 01:34:33;;;;;;;0.30;0.30;;;7.90;99.90;;;;;;5074533;28;20175;-67
2021/03/12 01:37:00;;;;;;;0.30;0.30;;;7.80;99.90;;;;;;5073181;28;20219;-68
2021/03/12 01:39:25;;;;;;;0.30;0.30;;;7.70;99.90;;;;;;5073604;28;20173;-68
2021/03/12 01:41:51;;;;;;;0.30;0.20;;;7.70;99.90;;;;;;5073135;28;20208;-68
2021/03/12 01:44:17;;;;;;;0.30;0.30;;;7.60;99.90;;;;;;5074404;28;20761;-68
2021/03/12 01:46:43;;;;;;;0.30;0.30;;;7.60;99.90;;;;;;5073152;28;20198;-68
2021/03/12 01:49:09;;;;;;;0.30;0.30;;;7.60;99.90;;;;;;5073182;28;20562;-68
2021/03/12 01:51:35;;;;;;;0.30;0.30;;;7.50;99.90;;;;;;5074125;28;20754;-67
2021/03/12 01:54:01;;;;;;;0.30;0.30;;;7.50;99.90;;;;;;5074131;28;21237;-68
2021/03/12 01:56:28;;;;;;;0.30;0.30;;;7.60;99.90;;;;;;5072369;28;20196;-67
2021/03/12 01:58:54;;;;;;;0.30;0.30;;;7.60;99.90;;;;;;5074259;28;20188;-67
2021/03/12 02:01:20;;;;;;;0.30;0.30;;;7.70;99.90;;;;;;5073968;28;20247;-68
2021/03/12 02:03:46;;;;;;;0.30;0.30;;;7.60;99.90;;;;;;5056153;28;20574;-69
2021/03/12 02:06:12;;;;;;;0.30;0.30;;;7.60;99.90;;;;;;5056092;28;20443;-68
2021/03/12 02:08:40;;;;;;;0.30;0.30;;;7.70;99.90;;;;;;5073979;28;20266;-68
2021/03/12 02:11:06;;;;;;;0.30;0.30;;;7.60;99.90;;;;;;5073731;28;20230;-68
2021/03/12 02:13:50;;;;;;;0.30;0.30;;;7.60;99.90;;;;;;5073909;28;20177;-67
2021/03/12 02:16:27;;;;;;;0.30;0.30;;;7.50;99.90;;;;;;5055587;28;20204;-68
2021/03/12 02:19:20;;;;;;;0.30;0.20;;;7.50;99.90;;;;;;5074155;28;20641;-69
2021/03/12 02:21:55;;;;;;;0.30;0.30;;;7.40;99.90;;;;;;5073523;28;20200;-67
2021/03/12 02:24:44;;;;;;;0.30;0.30;;;7.40;99.90;;;;;;5073660;28;20180;-68
2021/03/12 02:27:13;;;;;;;0.30;0.30;;;7.30;99.90;;;;;;5073470;28;20185;-67
2021/03/12 02:29:50;;;;;;;0.30;0.30;;;7.20;99.90;;;;;;5073870;28;20166;-68
2021/03/12 02:32:25;;;;;;;0.30;0.30;;;7.20;99.90;;;;;;5073420;28;20183;-68
2021/03/12 02:34:52;;;;;;;0.40;0.40;;;7.20;99.90;;;;;;5055489;28;20168;-68
2021/03/12 02:37:19;;;;;;;0.30;0.30;;;7.20;99.90;;;;;;5073048;28;20216;-69
2021/03/12 02:39:58;;;;;;;0.45;0.45;;;7.20;99.90;;;;;;5073634;28;20193;-68
2021/03/12 02:42:25;;;;;;;0.30;0.30;;;7.20;99.90;;;;;;5055133;28;20225;-69
2021/03/12 02:44:53;;;;;;;0.30;0.30;;;7.20;99.90;;;;;;5073161;28;20162;-69
2021/03/12 02:47:26;;;;;;;0.35;0.35;;;7.20;99.90;;;;;;5072895;28;20523;-68
2021/03/12 02:49:53;;;;;;;0.30;0.30;;;7.10;99.90;;;;;;5073412;28;20260;-68
2021/03/12 02:52:20;;;;;;;0.30;0.30;;;7.10;99.90;;;;;;5073196;28;20181;-68
2021/03/12 02:54:47;;;;;;;0.30;0.30;;;7.10;99.90;;;;;;5072893;28;20169;-69
2021/03/12 02:57:17;;;;;;;0.30;0.30;;;7.00;99.90;;;;;;5073412;28;20179;-68
2021/03/12 02:59:44;;;;;;;0.30;0.30;;;6.90;99.90;;;;;;5066106;28;20195;-68
2021/03/12 03:02:11;;;;;;;0.30;0.30;;;6.80;99.90;;;;;;5073643;28;20231;-68
2021/03/12 03:04:40;;;;;;;0.30;0.30;;;6.70;99.90;;;;;;5072833;28;20165;-68
2021/03/12 03:07:10;;;;;;;0.30;0.30;;;6.70;99.90;;;;;;5072958;28;20169;-68
2021/03/12 03:09:38;;;;;;;0.40;0.40;;;6.60;99.90;;;;;;5071614;28;20218;-69
2021/03/12 03:12:06;;;;;;;0.30;0.30;;;6.60;99.90;;;;;;5072945;28;20164;-68
2021/03/12 03:14:32;;;;;;;0.40;0.40;;;6.50;99.90;;;;;;5072793;28;20247;-68
2021/03/12 03:17:01;;;;;;;0.40;0.40;;;6.50;99.90;;;;;;5073052;28;20539;-68
2021/03/12 03:19:30;;;;;;;0.30;0.28;;;6.50;99.90;;;;;;5072698;28;20160;-69
2021/03/12 03:21:57;;;;;;;0.30;0.30;;;6.50;99.90;;;;;;5071943;28;20246;-67
2021/03/12 03:24:24;;;;;;;0.30;0.30;;;6.60;99.90;;;;;;5072681;28;20172;-67
2021/03/12 03:26:49;;;;;;;0.30;0.30;;;6.60;99.90;;;;;;5073442;28;20181;-68
2021/03/12 03:29:15;;;;;;;0.30;0.30;;;6.60;99.90;;;;;;5072838;28;20535;-68
2021/03/12 03:31:41;;;;;;;0.30;0.30;;;6.70;99.90;;;;;;5072841;28;20986;-68
2021/03/12 03:34:07;;;;;;;0.30;0.30;;;6.70;99.90;;;;;;5072794;28;20175;-68
2021/03/12 03:36:33;;;;;;;0.30;0.30;;;6.70;99.90;;;;;;5072533;28;20196;-68
2021/03/12 03:39:00;;;;;;;0.38;0.38;;;6.80;99.90;;;;;;5073155;28;20395;-68
2021/03/12 03:41:26;;;;;;;0.30;0.30;;;6.80;99.90;;;;;;5072769;28;20200;-67
2021/03/12 03:43:54;;;;;;;0.30;0.30;;;6.80;99.90;;;;;;5071466;28;20627;-68
2021/03/12 03:46:22;;;;;;;0.50;0.50;;;6.80;99.90;;;;;;5071315;28;20201;-68
2021/03/12 03:48:48;;;;;;;0.30;0.30;;;6.80;99.90;;;;;;5072798;28;20180;-69
2021/03/12 03:51:15;;;;;;;0.30;0.30;;;6.80;99.90;;;;;;5072305;28;20638;-68
2021/03/12 03:53:41;;;;;;;0.30;0.30;;;6.80;99.90;;;;;;5073042;28;20176;-67
2021/03/12 03:56:09;;;;;;;0.30;0.30;;;6.90;99.90;;;;;;5072383;28;20340;-66
2021/03/12 03:58:37;;;;;;;0.30;0.30;;;6.90;99.90;;;;;;5071666;28;20307;-66
2021/03/12 04:01:04;;;;;;;0.30;0.30;;;7.00;99.90;;;;;;5072735;28;20597;-67
2021/03/12 04:03:30;;;;;;;0.30;0.30;;;7.00;99.90;;;;;;5072813;28;20172;-67
2021/03/12 04:05:57;;;;;;;0.30;0.30;;;7.10;99.90;;;;;;5071946;28;20694;-66
2021/03/12 04:08:24;;;;;;;0.30;0.30;;;7.10;99.90;;;;;;5073002;28;20769;-67
2021/03/12 04:10:51;;;;;;;0.30;0.30;;;7.10;99.90;;;;;;5072484;28;20164;-67
2021/03/12 04:13:17;;;;;;;0.30;0.30;;;7.10;99.90;;;;;;5072892;28;20171;-66
2021/03/12 04:15:43;;;;;;;0.30;0.30;;;7.00;99.90;;;;;;5072020;28;20197;-67
2021/03/12 04:18:09;;;;;;;0.30;0.30;;;7.00;99.90;;;;;;5072949;28;20175;-67
2021/03/12 04:20:35;;;;;;;0.30;0.30;;;7.00;99.90;;;;;;5075035;28;20188;-68
2021/03/12 04:23:01;;;;;;;0.30;0.30;;;6.90;99.90;;;;;;5076296;28;20172;-67
2021/03/12 04:25:27;;;;;;;0.32;0.32;;;7.00;99.90;;;;;;5075324;28;20666;-67
2021/03/12 04:27:53;;;;;;;0.30;0.30;;;7.00;99.90;;;;;;5075813;28;20181;-68
2021/03/12 04:30:19;;;;;;;0.30;0.30;;;7.00;99.90;;;;;;5075789;28;20493;-69
2021/03/12 04:32:47;;;;;;;0.30;0.30;;;7.00;99.90;;;;;;5076247;28;20169;-68
2021/03/12 04:35:13;;;;;;;0.30;0.30;;;7.00;99.90;;;;;;5075739;28;20192;-67
2021/03/12 04:37:39;;;;;;;0.30;0.22;;;7.00;99.90;;;;;;5075835;28;20188;-67
2021/03/12 04:40:06;;;;;;;0.30;0.30;;;7.00;99.90;;;;;;5075413;28;20192;-68
2021/03/12 04:42:33;;;;;;;0.30;0.30;;;7.00;99.90;;;;;;5075549;28;20188;-69
2021/03/12 04:45:01;;;;;;;0.30;0.30;;;7.00;99.90;;;;;;5075441;28;20562;-68
2021/03/12 04:47:26;;;;;;;0.30;0.30;;;7.00;99.90;;;;;;5075532;28;20657;-68
2021/03/12 04:49:52;;;;;;;0.30;0.30;;;7.00;99.90;;;;;;5075453;28;20268;-69
2021/03/12 04:52:19;;;;;;;0.30;0.30;;;7.10;99.90;;;;;;5075882;28;20169;-69
2021/03/12 04:54:48;;;;;;;0.30;0.30;;;7.10;99.90;;;;;;5074777;28;20422;-66
2021/03/12 04:57:17;;;;;;;0.40;0.40;;;7.10;99.90;;;;;;5074303;28;20565;-67
2021/03/12 04:59:44;;;;;;;0.30;0.30;;;7.10;99.90;;;;;;5073898;28;20250;-68
2021/03/12 05:02:11;;;;;;;0.30;0.30;;;7.10;99.90;;;;;;5075538;28;20175;-68
2021/03/12 05:04:40;;;;;;;0.30;0.30;;;7.00;99.90;;;;;;5074726;28;20183;-68
2021/03/12 05:07:07;;;;;;;0.30;0.30;;;7.00;99.90;;;;;;5075071;28;20675;-68
2021/03/12 05:09:33;;;;;;;0.30;0.30;;;7.00;99.80;;;;;;5075410;28;20692;-68
2021/03/12 05:12:01;;;;;;;0.37;0.37;;;7.00;99.90;;;;;;5074081;28;20177;-68
2021/03/12 05:14:27;;;;;;;0.30;0.30;;;7.00;99.90;;;;;;5074836;28;20415;-68
2021/03/12 05:16:53;;;;;;;0.30;0.30;;;7.00;99.80;;;;;;5075275;28;20539;-68
2021/03/12 05:19:18;;;;;;;0.30;0.30;;;7.10;99.70;;;;;;5075174;28;20173;-69
2021/03/12 05:21:44;;;;;;;0.30;0.30;;;7.10;99.70;;;;;;5073529;28;20204;-67
2021/03/12 05:24:10;;;;;;;0.40;0.40;;;7.00;99.80;;;;;;5074733;28;20169;-69
2021/03/12 05:26:36;;;;;;;0.30;0.30;;;7.00;99.70;;;;;;5075069;28;20180;-67
2021/03/12 05:29:01;;;;;;;0.30;0.30;;;7.00;99.70;;;;;;5074827;28;20223;-69
2021/03/12 05:31:30;;;;;;;0.30;0.30;;;7.00;99.60;;;;;;5074486;28;20193;-68
2021/03/12 05:33:56;;;;;;;0.30;0.30;;;7.00;99.80;;;;;;5074676;28;20226;-69
2021/03/12 05:36:21;;;;;;;0.30;0.30;;;7.00;99.80;;;;;;5074740;28;20210;-68
2021/03/12 05:38:47;;;;;;;0.30;0.30;;;7.00;99.90;;;;;;5074822;28;20165;-68
2021/03/12 05:41:18;;;;;;;0.30;0.30;;;7.00;99.70;;;;;;5073207;28;20216;-67
2021/03/12 05:43:44;;;;;;;0.30;0.30;;;6.90;99.90;;;;;;5072913;28;20416;-69
2021/03/12 05:46:11;;;;;;;0.30;0.30;;;6.90;99.90;;;;;;5073791;28;20197;-68
2021/03/12 05:48:37;;;;;;;0.30;0.30;;;6.80;99.90;;;;;;5074612;28;20169;-68
2021/03/12 05:51:04;;;;;;;0.30;0.30;;;6.70;99.90;;;;;;5073941;28;20516;-68
2021/03/12 05:53:30;;;;;;;0.40;0.40;;;6.60;99.90;;;;;;5074742;28;20519;-68
2021/03/12 05:55:56;;;;;;;0.30;0.30;;;6.60;99.90;;;;;;5073633;28;20230;-68
2021/03/12 05:58:22;;;;;;;0.30;0.20;;;6.60;99.90;;;;;;5074230;28;20226;-68
2021/03/12 06:00:49;;;;;;;0.30;0.30;;;6.60;99.90;;;;;;5056188;28;20690;-69
2021/03/12 06:03:15;;;;;;;0.30;0.30;;;6.50;99.90;;;;;;5056232;28;20173;-68
2021/03/12 06:05:44;;;;;;;0.30;0.30;;;6.50;99.90;;;;;;5073530;28;20204;-68
2021/03/12 06:08:09;;;;;;;0.80;0.80;;;6.60;99.90;;;;;;5066769;28;20960;-68
2021/03/12 06:10:35;;;;;;;0.40;0.40;;;6.70;99.90;;;;;;5073703;28;20211;-69
2021/03/12 06:13:04;;;;;;;0.30;0.30;;;6.80;99.90;;;;;;5074414;28;20505;-68
2021/03/12 06:15:36;;;;;;;0.30;0.30;;;6.80;99.90;;;;;;5055924;28;20532;-69
2021/03/12 06:18:15;;;;;;;0.30;0.30;;;7.10;99.90;;;;;;5073753;28;20176;-69
2021/03/12 06:20:42;;;;;;;0.30;0.30;;;7.30;99.90;;;;;;5053863;28;20205;-70
2021/03/12 06:23:08;;;;;;;0.30;0.30;;;7.40;99.90;;;;;;5036153;28;20269;-69
2021/03/12 06:25:34;;;;;;;0.30;0.30;;;7.50;99.90;;;;;;5072461;28;20228;-69
2021/03/12 06:28:17;;;;;;;0.30;0.30;;;7.50;99.90;;;;;;5073144;28;20862;-68
2021/03/12 06:30:44;;;;;;;0.30;0.30;;;7.70;99.90;;;;;;5073721;28;20185;-68
2021/03/12 06:33:25;;;;;;;0.30;0.30;;;8.00;99.50;;;;;;5073649;28;20168;-68
2021/03/12 06:35:50;;;;;;;0.40;0.40;;;8.40;99.50;;;;;;5072277;28;20230;-70
2021/03/12 06:38:16;;;;;;;0.33;0.33;;;9.00;99.20;;;;;;5055901;28;20204;-71
2021/03/12 06:40:45;;;;;;;0.30;0.30;;;9.40;98.10;;;;;;5055630;28;20195;-74
2021/03/12 06:43:21;;;;;;;0.30;0.30;;;9.50;97.30;;;;;;5072952;28;20252;-73
2021/03/12 06:45:50;;;;;;;0.55;0.55;;;9.50;97.10;;;;;;5072943;28;20189;-68
2021/03/12 06:48:24;;;;;;;0.50;0.50;;;9.40;97.10;;;;;;5073323;28;20252;-69
2021/03/12 06:50:54;;;;;;;0.30;0.20;;;9.20;97.20;;;;;;5073515;28;20171;-68
2021/03/12 06:53:30;;;;;;;0.40;0.40;;;9.00;97.10;;;;;;5073310;28;20542;-70
2021/03/12 06:56:07;;;;;;;0.30;0.30;;;8.80;98.10;;;;;;5072708;28;20192;-69
2021/03/12 06:58:33;;;;;;;0.30;0.30;;;8.80;98.30;;;;;;5073005;28;20180;-67
2021/03/12 07:01:00;;;;;;;0.40;0.40;;;9.10;98.50;;;;;;5053337;28;20220;-67
2021/03/12 07:03:34;;;;;;;0.30;0.30;;;9.40;97.90;;;;;;5059313;28;20172;-67
2021/03/12 07:06:17;;;;;;;0.30;0.30;;;9.60;97.90;;;;;;5064628;28;20610;-69
2021/03/12 07:08:48;;;;;;;0.30;0.20;;;9.90;97.30;;;;;;5061270;28;20169;-67
2021/03/12 07:11:24;;;;;;;23.88;1.85;;;10.40;96.10;;;;;;5073398;28;20173;-67
2021/03/12 07:13:52;;;;;;;0.30;0.20;;;10.80;95.10;;;;;;5072678;28;20177;-66
2021/03/12 07:16:18;;;;;;;0.30;0.30;;;10.80;95.00;;;;;;5072709;28;20200;-69
2021/03/12 07:18:47;;;;;;;0.30;0.30;;;10.60;94.60;;;;;;5055230;28;20200;-67
2021/03/12 07:21:14;;;;;;;0.40;0.40;;;10.70;95.00;;;;;;5072991;28;20291;-68
2021/03/12 07:23:44;;;;;;;0.30;0.30;;;11.00;94.80;;;;;;5073287;28;20230;-65
2021/03/12 07:26:12;;;;;;;0.30;0.30;;;11.60;94.70;;;;;;5055158;28;20224;-68
2021/03/12 07:28:40;;;;;;;0.40;0.20;;;12.20;93.50;;;;;;5073097;28;20817;-67
2021/03/12 07:31:06;;;;;;;0.60;0.30;;;12.50;92.70;;;;;;5072494;28;20424;-66
2021/03/12 07:33:35;;;;;;;0.90;0.30;;;12.60;92.40;;;;;;5073123;28;20420;-66
2021/03/12 07:36:06;;;;;;;1.00;0.30;;;12.30;92.80;;;;;;5072100;28;20494;-66
2021/03/12 07:38:37;;;;;;;1.10;0.30;;;12.60;93.20;;;;;;5068807;28;20510;-65
2021/03/12 07:41:05;;;;;;;1.30;0.30;;;13.30;92.60;;;;;;5054145;28;20467;-65
2021/03/12 07:43:39;;;;;;;1.70;0.40;;;14.10;91.40;;;;;;5062521;28;20464;-67
2021/03/12 07:46:07;;;;;;;1.90;0.30;;;14.20;90.20;;;;;;5072280;28;20454;-66
2021/03/12 07:48:33;;;;;;;2.00;0.30;;;13.70;90.30;;;;;;5073055;28;20405;-67
2021/03/12 07:51:15;;;;;;;2.10;0.30;;;13.10;90.80;;;;;;5072649;28;20410;-65
2021/03/12 07:54:01;;;;;;;2.10;0.40;;;12.50;91.30;;;;;;5073913;28;20175;-66
2021/03/12 07:56:45;;;;;;;2.10;0.30;;;11.90;91.50;;;;;;5076114;28;20443;-64
2021/03/12 07:59:12;;;;;;;2.00;0.30;;;11.20;92.50;;;;;;5065363;28;20990;-65
2021/03/12 08:01:51;;;;;;;1.98;0.40;;;10.70;92.90;;;;;;5076496;28;20203;-64
2021/03/12 08:04:30;;;;;;;1.90;0.32;;;10.10;93.80;;;;;;5076254;28;20172;-64
2021/03/12 08:06:58;;;;;;;1.70;0.30;;;9.70;95.70;;;;;;5076122;28;20242;-66
2021/03/12 08:09:37;;;;;;;1.55;0.30;;;9.40;96.70;;;;;;5076549;28;20172;-68
2021/03/12 08:12:04;;;;;;;1.30;0.30;;;9.30;98.30;;;;;;5075375;28;20199;-67
2021/03/12 08:14:32;;;;;;;1.00;0.30;;;9.50;99.50;;;;;;5076133;28;20572;-66
2021/03/12 08:16:57;;;;;;;0.90;0.30;;;10.50;98.70;;;;;;5075807;28;20217;-66
2021/03/12 08:19:36;;;;;;;1.10;0.30;;;11.90;96.60;;;;;;5076235;28;20395;-68
2021/03/12 08:22:27;;;;;;;1.50;0.30;;;13.30;93.90;;;;;;5074898;28;20212;-64
2021/03/12 08:24:53;;;;;;;2.00;0.40;;;14.50;91.80;;;;;;5075405;28;20407;-65
2021/03/12 08:27:40;;;;;;;2.20;0.30;;;15.50;90.90;;;;;;5076079;28;20396;-65
2021/03/12 08:30:08;;;;;;;2.30;0.40;;;16.20;87.00;;;;;;5075970;28;20481;-67
2021/03/12 08:32:33;;;;;;;2.50;0.30;;;16.60;84.20;;;;;;5075740;28;20411;-65
2021/03/12 08:34:59;;;;;;;2.70;0.30;;;17.00;83.60;;;;;;5075176;28;20403;-67
2021/03/12 08:37:28;;;;;;;2.77;0.40;;;17.50;82.10;;;;;;5075763;28;20189;-65
2021/03/12 08:40:15;;;;;;;2.80;0.40;;;18.10;79.50;;;;;;5075968;28;20168;-65
2021/03/12 08:43:03;;;;;;;2.70;0.30;;;18.60;78.40;;;;;;5075788;28;20395;-65
2021/03/12 08:45:49;;;;;;;2.77;0.30;;;18.50;76.30;;;;;;5074910;28;20510;-65
2021/03/12 08:48:17;;;;;;;2.80;0.40;;;17.70;75.70;;;;;;5074582;28;20408;-64
2021/03/12 08:50:49;;;;;;;2.80;0.30;;;16.80;77.50;;;;;;5074262;28;20460;-65
2021/03/12 08:53:15;;;;;;;2.80;0.30;;;15.70;78.90;;;;;;5075558;28;20753;-65
2021/03/12 08:55:49;;;;;;;2.80;0.30;;;14.60;81.80;;;;;;5074924;28;20431;-66
2021/03/12 08:58:29;;;;;;;2.73;0.40;;;13.90;84.30;;;;;;5075661;28;20424;-64
2021/03/12 09:00:59;;;;;;;2.70;0.30;;;13.20;84.70;;;;;;5075604;28;20483;-65
2021/03/12 09:03:27;;;;;;;2.70;0.30;;;12.70;86.10;;;;;;5057578;28;20418;-66
2021/03/12 09:06:00;;;;;;;2.70;0.30;;;12.30;87.40;;;;;;5074162;28;20468;-70
2021/03/12 09:08:28;;;;;;;2.70;0.40;;;11.80;89.60;;;;;;5073616;28;20417;-69
2021/03/12 09:10:54;;;;;;;2.70;0.30;;;11.40;91.20;;;;;;5067711;28;20453;-70
2021/03/12 09:13:22;;;;;;;2.60;0.30;;;11.00;91.50;;;;;;5057212;28;20539;-69
2021/03/12 09:15:49;;;;;;;2.60;0.40;;;11.00;91.90;;;;;;5058539;28;20844;-69
2021/03/12 09:18:20;;;;;;;2.60;0.30;;;10.80;91.60;;;;;;5075030;28;20260;-69
2021/03/12 09:21:03;;;;;;;2.50;0.40;;;10.60;92.20;;;;;;5075272;28;20647;-70
2021/03/12 09:23:47;;;;;;;2.40;0.30;;;10.50;92.90;;;;;;5075005;28;20191;-68
2021/03/12 09:26:19;;;;;;;2.30;0.30;;;10.50;92.70;;;;;;5074316;28;20188;-69
2021/03/12 09:28:46;;;;;;;2.30;0.30;;;11.30;93.40;;;;;;5067948;28;20188;-67
2021/03/12 09:31:13;;;;;;;2.40;0.40;;;12.70;92.10;;;;;;5075241;28;20792;-65
2021/03/12 09:33:51;;;;;;;2.50;0.50;;;13.70;88.70;;;;;;5075081;28;20510;-70
2021/03/12 09:36:38;;;;;;;2.57;0.30;;;14.10;86.50;;;;;;5074564;28;20498;-67
2021/03/12 09:39:12;;;;;;;2.60;0.30;;;14.10;82.80;;;;;;5074575;28;20426;-68
2021/03/12 09:41:43;;;;;;;2.67;0.30;;;13.80;82.50;;;;;;5056809;28;20485;-70
2021/03/12 09:44:11;;;;;;;2.67;0.40;;;13.30;84.60;;;;;;5074295;28;20433;-72
2021/03/12 09:46:41;;;;;;;2.63;0.30;;;12.80;85.80;;;;;;5074496;28;20438;-66
2021/03/12 09:49:16;;;;;;;2.60;0.30;;;12.70;87.90;;;;;;5056623;28;20418;-67
2021/03/12 09:51:45;;;;;;;2.57;0.40;;;12.60;87.60;;;;;;5074068;28;20829;-64
2021/03/12 09:54:15;;;;;;;2.50;0.30;;;12.60;87.70;;;;;;5074239;28;20413;-66
2021/03/12 09:56:54;;;;;;;2.50;0.40;;;12.50;88.00;;;;;;5074074;28;20453;-66
2021/03/12 09:59:24;;;;;;;2.50;0.30;;;12.60;88.60;;;;;;5074236;28;20491;-66
2021/03/12 10:01:49;;;;;;;2.50;0.30;;;12.80;89.70;;;;;;5074160;28;20839;-67
2021/03/12 10:04:29;;;;;;;2.50;0.30;;;12.90;88.20;;;;;;5065011;28;20435;-67
2021/03/12 10:07:16;;;;;;;2.50;0.30;;;13.20;88.60;;;;;;5066783;28;20278;-66
2021/03/12 10:09:47;;;;;;;2.50;0.40;;;13.10;89.40;;;;;;5073906;28;20449;-66
2021/03/12 10:12:20;;;;;;;2.50;0.30;;;12.80;90.10;;;;;;5055845;28;20497;-67
2021/03/12 10:14:48;;;;;;;2.50;0.30;;;12.90;91.20;;;;;;5073275;28;20896;-67
2021/03/12 10:17:22;;;;;;;2.47;0.30;;;13.20;90.90;;;;;;5073193;28;20394;-67
2021/03/12 10:20:20;;;;;;;2.50;0.30;;;13.60;90.00;;;;;;5074145;28;20477;-67
2021/03/12 10:22:51;;;;;;;2.50;0.20;;;13.60;88.10;;;;;;5018872;28;20447;-66
2021/03/12 10:25:22;;;;;;;2.60;0.40;;;13.50;88.40;;;;;;5073258;28;20453;-67
2021/03/12 10:28:00;;;;;;;2.80;0.70;;;13.50;88.80;;;;;;5073816;28;20502;-67
2021/03/12 10:30:34;;;;;;;2.53;0.30;;;13.40;89.60;;;;;;5073842;28;20399;-67
2021/03/12 10:33:30;;;;;;;2.57;0.30;;;13.60;90.00;;;;;;5073367;28;20423;-67
2021/03/12 10:35:57;;;;;;;2.60;0.30;;;13.90;90.20;;;;;;5072930;28;20497;-68
2021/03/12 10:38:34;;;;;;;2.63;0.40;;;14.50;88.50;;;;;;5073668;28;20815;-67
2021/03/12 10:41:14;;;;;;;2.70;0.30;;;14.90;85.60;;;;;;5073418;28;20545;-66
2021/03/12 10:43:40;;;;;;;2.70;0.30;;;15.60;83.20;;;;;;5073876;28;20449;-68
2021/03/12 10:46:10;;;;;;;2.70;0.30;;;16.70;81.20;;;;;;5072850;28;20945;-66
2021/03/12 10:48:41;;;;;;;2.70;0.40;;;17.50;76.90;;;;;;5055587;28;20169;-65
2021/03/12 10:51:09;;;;;;;2.70;0.30;;;17.90;74.00;;;;;;5073283;28;20411;-66
2021/03/12 10:53:54;;;;;;;2.70;0.40;;;18.20;72.60;;;;;;5073272;28;20410;-68
2021/03/12 10:56:25;;;;;;;2.70;0.30;;;18.60;71.30;;;;;;5073097;28;20860;-67
2021/03/12 10:58:53;;;;;;;2.60;0.30;;;18.80;73.70;;;;;;5073371;28;20732;-67
2021/03/12 11:01:24;;;;;;;2.63;0.30;;;18.50;75.30;;;;;;5073191;28;20447;-67
2021/03/12 11:03:51;;;;;;;2.67;0.30;;;17.80;76.20;;;;;;5073187;28;20762;-66
2021/03/12 11:06:19;;;;;;;2.67;0.30;;;17.00;77.20;;;;;;5073364;28;20484;-68
2021/03/12 11:08:45;;;;;;;2.70;0.50;;;17.00;75.80;;;;;;5073151;28;20429;-69
2021/03/12 11:11:14;;;;;;;2.60;0.37;;;16.90;76.60;;;;;;5073019;28;20837;-67
2021/03/12 11:13:41;;;;;;;2.60;0.30;;;16.80;77.10;;;;;;5073438;28;20411;-69
2021/03/12 11:16:08;;;;;;;2.70;0.30;;;16.50;78.20;;;;;;5054749;28;20441;-69
2021/03/12 11:18:35;;;;;;;2.67;0.40;;;16.40;76.90;;;;;;5072739;28;20411;-69
2021/03/12 11:21:03;;;;;;;2.70;0.50;;;16.30;77.90;;;;;;5072676;28;20476;-66
2021/03/12 11:23:29;;;;;;;2.63;0.30;;;16.30;78.80;;;;;;5073129;28;20409;-72
2021/03/12 11:25:56;;;;;;;2.63;0.40;;;16.30;76.30;;;;;;5072489;28;20423;-70
2021/03/12 11:28:24;;;;;;;2.70;0.40;;;15.90;74.20;;;;;;5074058;28;20396;-67
2021/03/12 11:30:49;;;;;;;3.40;0.67;;;15.60;74.40;;;;;;5077508;28;20428;-67
2021/03/12 11:33:15;;;;;;;2.60;0.40;;;15.10;72.50;;;;;;5077162;28;20967;-70
2021/03/12 11:35:41;;;;;;;2.63;0.30;;;14.60;74.70;;;;;;5076601;28;20263;-73
2021/03/12 11:38:09;;;;;;;2.63;0.30;;;14.30;74.60;;;;;;5077061;28;20181;-68
2021/03/12 11:40:38;;;;;;;2.67;0.30;;;14.10;74.80;;;;;;5077012;28;20437;-68
2021/03/12 11:43:04;;;;;;;2.70;0.40;;;13.70;74.20;;;;;;5076852;28;20398;-68
2021/03/12 11:45:30;;;;;;;2.70;0.30;;;13.50;75.60;;;;;;5076181;28;20487;-69
2021/03/12 11:47:58;;;;;;;2.80;0.50;;;13.50;77.70;;;;;;5076894;28;20410;-68
2021/03/12 11:50:25;;;;;;;2.80;0.30;;;13.40;78.90;;;;;;5076641;28;20173;-67
2021/03/12 11:52:51;;;;;;;2.70;0.37;;;13.50;78.10;;;;;;5076847;28;20466;-67
2021/03/12 11:55:17;;;;;;;2.80;0.40;;;13.50;77.10;;;;;;5076232;28;20513;-67
2021/03/12 11:57:43;;;;;;;2.70;0.30;;;13.40;79.40;;;;;;5076709;28;20215;-68
2021/03/12 12:00:11;;;;;;;2.80;0.40;;;13.20;79.70;;;;;;5075726;28;20199;-68
2021/03/12 12:02:37;;;;;;;2.77;0.37;;;13.00;78.90;;;;;;5075938;28;20783;-69
2021/03/12 12:05:05;;;;;;;2.73;0.30;;;13.00;77.60;;;;;;5058180;28;20438;-68
2021/03/12 12:07:31;;;;;;;2.70;0.30;;;13.00;77.00;;;;;;5076356;28;20483;-69
2021/03/12 12:09:57;;;;;;;2.70;0.30;;;12.90;74.50;;;;;;5076336;28;20771;-68
2021/03/12 12:12:22;;;;;;;2.80;0.30;;;12.80;74.90;;;;;;5076297;28;20165;-68
2021/03/12 12:14:48;;;;;;;2.73;0.30;;;12.60;74.10;;;;;;5075797;28;20166;-68
2021/03/12 12:17:14;;;;;;;2.70;0.40;;;12.50;73.70;;;;;;5076497;28;20248;-66
2021/03/12 12:19:40;;;;;;;2.70;0.30;;;12.50;75.70;;;;;;5058227;28;20567;-69
2021/03/12 12:22:11;;;;;;;2.70;0.30;;;12.50;76.80;;;;;;5075804;28;20458;-68
2021/03/12 12:24:37;;;;;;;2.70;0.30;;;12.70;75.90;;;;;;5057908;28;20987;-68
2021/03/12 12:27:05;;;;;;;2.67;0.30;;;12.70;78.70;;;;;;5075463;28;20441;-69
2021/03/12 12:29:30;;;;;;;2.70;0.30;;;12.90;72.80;;;;;;5076071;28;20163;-65
2021/03/12 12:31:56;;;;;;;2.70;0.40;;;12.90;70.00;;;;;;5076047;28;20495;-64
2021/03/12 12:34:22;;;;;;;2.70;0.30;;;12.90;70.20;;;;;;5075776;28;20204;-66
2021/03/12 12:36:48;;;;;;;2.73;0.30;;;12.90;69.10;;;;;;5075622;28;20467;-66
2021/03/12 12:39:14;;;;;;;2.70;0.30;;;12.80;69.00;;;;;;5057444;28;20169;-64
2021/03/12 12:41:40;;;;;;;2.70;0.40;;;12.70;70.00;;;;;;5074678;28;20201;-67
2021/03/12 12:44:07;;;;;;;2.70;0.40;;;12.70;71.50;;;;;;5075343;28;20416;-66
2021/03/12 12:46:33;;;;;;;2.70;0.30;;;12.70;71.30;;;;;;5075565;28;20455;-72
2021/03/12 12:49:00;;;;;;;2.70;0.40;;;12.70;70.10;;;;;;5075723;28;20400;-69
2021/03/12 12:51:25;;;;;;;2.70;0.30;;;12.60;70.00;;;;;;5068193;28;20940;-69
2021/03/12 12:53:51;;;;;;;2.77;0.40;;;12.40;72.30;;;;;;5070703;28;20189;-67
2021/03/12 12:56:17;;;;;;;2.70;0.30;;;12.20;73.40;;;;;;5060797;28;20202;-69
2021/03/12 12:58:42;;;;;;;2.73;0.40;;;12.00;73.90;;;;;;5055389;28;20272;-68
2021/03/12 13:01:08;;;;;;;2.70;0.40;;;11.90;75.10;;;;;;5063127;28;20663;-68
2021/03/12 13:03:34;;;;;;;2.70;0.30;;;11.80;75.90;;;;;;5075571;28;20565;-68